Terminal Aerodrome Forecast
Issued by NWS Greer, SC

Home | Current Version | Previous Version | Text Only | Print | Product List | Glossary On
Versions: 1 2 3 4 5 6 7 8 9 10 11 12 13 14 15 16 17 18 19 20 21
000
FTUS42 KGSP 211136
TAFGSP
TAF
KGSP 211136Z 2112/2212 06003KT P6SM SCT018 OVC060
      TEMPO 2112/2115 BKN018 OVC060
     FM211600 05005KT P6SM OVC040
     FM212300 04004KT P6SM BKN060
     FM220400 34003KT 4SM BR BKN030=

USA.gov is the U.S. government's official web portal to all federal, state and local government web resources and services.